createdAt,value
2018-12-15T16:18:12.942Z,25.07
2018-12-15T16:48:49.030Z,52.26
2018-12-15T16:53:53.241Z,57.03
2018-12-15T16:58:57.397Z,60.68
2018-12-15T17:04:01.482Z,61.75
2018-12-15T17:09:08.622Z,63.28
2018-12-15T17:14:12.705Z,65.24
2018-12-15T17:19:16.786Z,66.88
2018-12-15T17:24:20.878Z,67.53
2018-12-15T17:29:24.953Z,68.05
2018-12-15T17:34:29.849Z,69.43
2018-12-15T17:39:34.322Z,70.02
2018-12-15T17:44:38.411Z,70.22
2018-12-15T17:49:42.490Z,71.64
2018-12-15T17:54:46.560Z,71.88
2018-12-15T17:59:50.647Z,72.88
2018-12-15T18:04:56.725Z,73.48
2018-12-15T18:10:01.551Z,77.72
2018-12-15T18:15:06.196Z,74.41
2018-12-15T18:20:10.330Z,74.77
2018-12-15T18:25:14.400Z,74.94
2018-12-15T18:30:18.476Z,75.19
2018-12-15T18:35:22.630Z,75.99
2018-12-15T18:40:26.690Z,76.19
2018-12-15T18:45:30.875Z,76.40
2018-12-15T18:50:34.943Z,75.95
2018-12-15T18:55:39.022Z,76.34
2018-12-15T19:00:43.106Z,76.96
2018-12-15T19:05:47.178Z,77.05
2018-12-15T19:10:51.245Z,76.54
2018-12-15T19:15:55.325Z,76.93
2018-12-15T19:20:59.443Z,76.76
2018-12-15T19:26:03.512Z,77.05
2018-12-15T19:31:07.583Z,76.78
2018-12-15T19:36:11.756Z,76.91
2018-12-15T19:41:15.822Z,77.64
2018-12-15T19:46:19.902Z,76.73
2018-12-15T19:51:29.470Z,76.77
2018-12-15T19:56:30.062Z,77.02
2018-12-15T20:01:34.143Z,76.75
2018-12-15T20:06:38.221Z,76.33
2018-12-15T20:11:42.299Z,76.19
2018-12-15T20:16:46.357Z,76.37
2018-12-15T20:21:50.427Z,76.60
2018-12-15T20:26:54.510Z,77.01
2018-12-15T20:31:58.557Z,76.61
2018-12-15T20:37:02.646Z,76.64
2018-12-15T20:42:06.717Z,77.02
2018-12-15T20:47:10.886Z,76.98
2018-12-15T20:52:14.961Z,77.30
2018-12-15T20:57:19.055Z,77.33
2018-12-15T21:02:23.134Z,77.69
2018-12-15T21:07:27.214Z,78.05
2018-12-15T21:12:31.282Z,78.41
2018-12-15T21:17:35.371Z,78.56
2018-12-15T21:22:39.471Z,78.12
2018-12-15T21:27:43.557Z,78.09
2018-12-15T21:32:47.726Z,77.90
2018-12-15T21:37:51.796Z,77.47
2018-12-15T21:42:55.881Z,77.74
2018-12-15T21:47:59.959Z,77.35
2018-12-15T21:53:04.042Z,77.56
2018-12-15T21:58:08.119Z,77.36
2018-12-15T22:03:12.301Z,77.12
2018-12-15T22:08:16.373Z,77.05
2018-12-15T22:13:20.462Z,76.98
2018-12-15T22:18:24.537Z,76.47
2018-12-15T22:23:28.630Z,76.92
2018-12-15T22:28:32.693Z,76.59
2018-12-15T22:33:36.771Z,76.74
2018-12-15T22:38:40.867Z,76.49
2018-12-15T22:43:44.934Z,76.50
2018-12-15T22:48:49.019Z,76.88
2018-12-15T22:53:53.102Z,77.12
2018-12-15T22:58:57.177Z,77.47
2018-12-15T23:04:01.367Z,77.12
2018-12-15T23:09:07.186Z,77.16
2018-12-15T23:14:11.282Z,76.78
2018-12-15T23:19:15.363Z,76.92
2018-12-15T23:24:19.477Z,76.92
2018-12-15T23:29:23.545Z,77.18
2018-12-15T23:34:27.631Z,77.04
2018-12-15T23:39:31.702Z,77.18
2018-12-15T23:44:35.777Z,77.05
2018-12-15T23:49:39.853Z,77.12
2018-12-15T23:54:43.942Z,77.27
2018-12-15T23:59:48.193Z,76.96
